Meya — CNA4712 — position and weather

sailwx.info

Track history (hours):
 
Tides and Currents Weather Stations Pressure Air Temp Water Temp Dewpoint Dewpoint Depression Visibility Wind Speed Wind Dir Waves Ship Positions

Meya

Last reported at 2017-Nov-10 16:57 UTC. Time now 2017-Nov-20 06:20 UTC.
Position N 24°01' W 015°54'.
Warning: this ship's position is 9 days out of date.

Length 58 m; draft 5.5 m.

Type: Ship. MMSI: 242141100.

Date/timePositionNaut miles runAvg speedWind from/ knotsBaromVisibWave heightAir tempDewpointWater temp
2017-Nov-10 16:57N 24°01' W 015°54'510.7
2017-Nov-10 16:28N 24°06' W 015°54'510.8
2017-Nov-10 16:00N 24°11' W 015°52'3 5.7
2017-Nov-10 15:25N 24°14' W 015°50'0 0.7
2017-Nov-10 15:00N 24°14' W 015°50'2 2.7
2017-Nov-10 14:27N 24°15' W 015°49'1 2.6
2017-Nov-10 13:58N 24°15' W 015°50'1 2.4
2017-Nov-10 13:30N 24°16' W 015°49'1 2.4
2017-Nov-10 12:59N 24°14' W 015°49'10 4.6
2017-Nov-10 10:52N 24°21' W 015°41'  
Track history (hours):
 
Tides and Currents Weather Stations Pressure Air Temp Water Temp Dewpoint Dewpoint Depression Visibility Wind Speed Wind Dir Waves Ship Positions

Meya

Last reported at 2017-Nov-10 16:57 UTC. Time now 2017-Nov-20 06:20 UTC.
Position N 24°01' W 015°54'.
Warning: this ship's position is 9 days out of date.

Length 58 m; draft 5.5 m.

Type: Ship. MMSI: 242141100.

Date/timePositionNaut miles runAvg speedWind from/ knotsBaromVisibWave heightAir tempDewpointWater temp
2017-Nov-10 16:57N 24°01' W 015°54'510.7
2017-Nov-10 16:28N 24°06' W 015°54'510.8
2017-Nov-10 16:00N 24°11' W 015°52'3 5.7
2017-Nov-10 15:25N 24°14' W 015°50'0 0.7
2017-Nov-10 15:00N 24°14' W 015°50'2 2.7
2017-Nov-10 14:27N 24°15' W 015°49'1 2.6
2017-Nov-10 13:58N 24°15' W 015°50'1 2.4
2017-Nov-10 13:30N 24°16' W 015°49'1 2.4
2017-Nov-10 12:59N 24°14' W 015°49'10 4.6
2017-Nov-10 10:52N 24°21' W 015°41'  

Dump ship's entire track history